Humboldt Bay — A8OL4 — position and weather

sailwx.info

Track history (hours):
 
Tides and Currents Weather Stations Pressure Air Temp Water Temp Dewpoint Dewpoint Depression Visibility Wind Speed Wind Dir Waves Ship Positions

Humboldt Bay

Last reported at 2017-Feb-13 00:11 UTC. Time now 2017-Feb-23 05:02 UTC.
Position N 09°13' W 079°55'.
Warning: this ship's position is 10 days out of date.

Length 147 m; draft 5.8 m.

Type: Cargo ship. MMSI: 636013649.

Date/timePositionNaut miles runAvg speedWind from/ knotsBaromVisibWave heightAir tempDewpointWater temp
2017-Feb-13 00:11N 09°13' W 079°55'2 3.5
2017-Feb-12 23:33N 09°15' W 079°55'2 1.1
2017-Feb-12 21:31N 09°17' W 079°55'5 5.3
2017-Feb-12 20:32N 09°22' W 079°55'0 0.0
2017-Feb-12 19:32N 09°22' W 079°55'0 0.0
2017-Feb-12 18:32N 09°22' W 079°55'0 0.0
2017-Feb-12 17:32N 09°22' W 079°55'0 0.0
2017-Feb-12 16:32N 09°22' W 079°55'0 0.1
2017-Feb-12 15:33N 09°22' W 079°55'0 0.2
2017-Feb-12 14:33N 09°22' W 079°55'0 0.3
2017-Feb-12 13:33N 09°23' W 079°55'4 4.4
2017-Feb-12 12:33N 09°27' W 079°56'0 0.0
2017-Feb-12 11:33N 09°27' W 079°56'0 0.0
2017-Feb-12 10:30N 09°27' W 079°56'0 0.0
2017-Feb-12 09:33N 09°27' W 079°56'0 0.0
2017-Feb-12 08:33N 09°27' W 079°56'0 0.1
2017-Feb-12 07:33N 09°27' W 079°56'0 0.0
2017-Feb-12 06:33N 09°27' W 079°56'0 0.0
2017-Feb-12 05:33N 09°27' W 079°56'0 0.0
2017-Feb-12 04:27N 09°27' W 079°56'0 0.0
2017-Feb-12 03:30N 09°27' W 079°56'0 0.0
2017-Feb-12 02:33N 09°27' W 079°56'0 0.0
2017-Feb-12 01:30N 09°27' W 079°56'0 0.0
2017-Feb-12 00:33N 09°27' W 079°56'0 0.0
2017-Feb-11 23:33N 09°27' W 079°56'0 0.0
2017-Feb-11 22:33N 09°27' W 079°56'0 0.0
2017-Feb-11 21:33N 09°27' W 079°56'0 0.0
2017-Feb-11 20:33N 09°27' W 079°56'0 0.0
2017-Feb-11 19:34N 09°27' W 079°56'4 3.6
2017-Feb-11 18:34N 09°30' W 079°54'  
2017-Feb-09 00:07N 16°11' W 062°52'916.3
2017-Feb-08 23:33N 16°14' W 062°43'1616.4
2017-Feb-08 22:33N 16°20' W 062°27'1716.5
2017-Feb-08 21:33N 16°26' W 062°11'1717.0
2017-Feb-08 20:33N 16°32' W 061°54'1716.8
2017-Feb-08 19:33N 16°37' W 061°38'1716.7
2017-Feb-08 18:33N 16°45' W 061°22'1716.6
2017-Feb-08 17:34N 16°55' W 061°08'  
Track history (hours):
 
Tides and Currents Weather Stations Pressure Air Temp Water Temp Dewpoint Dewpoint Depression Visibility Wind Speed Wind Dir Waves Ship Positions

Humboldt Bay

Last reported at 2017-Feb-13 00:11 UTC. Time now 2017-Feb-23 05:02 UTC.
Position N 09°13' W 079°55'.
Warning: this ship's position is 10 days out of date.

Length 147 m; draft 5.8 m.

Type: Cargo ship. MMSI: 636013649.

Date/timePositionNaut miles runAvg speedWind from/ knotsBaromVisibWave heightAir tempDewpointWater temp
2017-Feb-13 00:11N 09°13' W 079°55'2 3.5
2017-Feb-12 23:33N 09°15' W 079°55'2 1.1
2017-Feb-12 21:31N 09°17' W 079°55'5 5.3
2017-Feb-12 20:32N 09°22' W 079°55'0 0.0
2017-Feb-12 19:32N 09°22' W 079°55'0 0.0
2017-Feb-12 18:32N 09°22' W 079°55'0 0.0
2017-Feb-12 17:32N 09°22' W 079°55'0 0.0
2017-Feb-12 16:32N 09°22' W 079°55'0 0.1
2017-Feb-12 15:33N 09°22' W 079°55'0 0.2
2017-Feb-12 14:33N 09°22' W 079°55'0 0.3
2017-Feb-12 13:33N 09°23' W 079°55'4 4.4
2017-Feb-12 12:33N 09°27' W 079°56'0 0.0
2017-Feb-12 11:33N 09°27' W 079°56'0 0.0
2017-Feb-12 10:30N 09°27' W 079°56'0 0.0
2017-Feb-12 09:33N 09°27' W 079°56'0 0.0
2017-Feb-12 08:33N 09°27' W 079°56'0 0.1
2017-Feb-12 07:33N 09°27' W 079°56'0 0.0
2017-Feb-12 06:33N 09°27' W 079°56'0 0.0
2017-Feb-12 05:33N 09°27' W 079°56'0 0.0
2017-Feb-12 04:27N 09°27' W 079°56'0 0.0
2017-Feb-12 03:30N 09°27' W 079°56'0 0.0
2017-Feb-12 02:33N 09°27' W 079°56'0 0.0
2017-Feb-12 01:30N 09°27' W 079°56'0 0.0
2017-Feb-12 00:33N 09°27' W 079°56'0 0.0
2017-Feb-11 23:33N 09°27' W 079°56'0 0.0
2017-Feb-11 22:33N 09°27' W 079°56'0 0.0
2017-Feb-11 21:33N 09°27' W 079°56'0 0.0
2017-Feb-11 20:33N 09°27' W 079°56'0 0.0
2017-Feb-11 19:34N 09°27' W 079°56'4 3.6
2017-Feb-11 18:34N 09°30' W 079°54'  
2017-Feb-09 00:07N 16°11' W 062°52'916.3
2017-Feb-08 23:33N 16°14' W 062°43'1616.4
2017-Feb-08 22:33N 16°20' W 062°27'1716.5
2017-Feb-08 21:33N 16°26' W 062°11'1717.0
2017-Feb-08 20:33N 16°32' W 061°54'1716.8
2017-Feb-08 19:33N 16°37' W 061°38'1716.7
2017-Feb-08 18:33N 16°45' W 061°22'1716.6
2017-Feb-08 17:34N 16°55' W 061°08'  

Dump ship's entire track history